Time;durP1;ratioP1;P1;durP2;ratioP2;P2;SDS_P1;SDS_P2;PMS_P1;PMS_P2;Temp;Humidity;BMP_temperature;BMP_pressure;BME280_temperature;BME280_humidity;BME280_pressure;Samples;Min_cycle;Max_cycle;Signal;HPM_P1;HPM_P2
2023/03/19 00:01:19;;;;;;;;;;;19.90;84.10;;;;;;5116728;28;19911;-57
2023/03/19 00:03:46;;;;;;;;;;;19.90;83.90;;;;;;5116319;28;19908;-58
2023/03/19 00:06:12;;;;;;;;;;;19.80;84.30;;;;;;5115958;28;19919;-58
2023/03/19 00:08:37;;;;;;;;;;;19.80;84.40;;;;;;5116158;28;19912;-58
2023/03/19 00:11:07;;;;;;;;;;;19.80;84.50;;;;;;5116520;28;19928;-58
2023/03/19 00:13:32;;;;;;;;;;;19.80;84.40;;;;;;5116692;28;19937;-58
2023/03/19 00:15:58;;;;;;;;;;;19.70;84.70;;;;;;5115921;28;19912;-58
2023/03/19 00:18:24;;;;;;;;;;;19.80;84.70;;;;;;5116161;28;20011;-58
2023/03/19 00:20:49;;;;;;;;;;;19.80;84.70;;;;;;5116240;28;19908;-58
2023/03/19 00:23:15;;;;;;;;;;;19.90;84.70;;;;;;5115243;28;20372;-58
2023/03/19 00:25:40;;;;;;;;;;;20.00;84.50;;;;;;5114939;28;19912;-58
2023/03/19 00:28:06;;;;;;;;;;;20.10;84.40;;;;;;5116159;28;19912;-57
2023/03/19 00:30:32;;;;;;;;;;;20.20;84.20;;;;;;5116209;28;19923;-58
2023/03/19 00:32:58;;;;;;;;;;;20.30;83.90;;;;;;5115876;28;20263;-58
2023/03/19 00:35:23;;;;;;;;;;;20.20;83.80;;;;;;5115039;28;19915;-58
2023/03/19 00:37:49;;;;;;;;;;;20.20;83.90;;;;;;5116107;28;20006;-58
2023/03/19 00:40:14;;;;;;;;;;;20.20;83.70;;;;;;5115662;28;19934;-58
2023/03/19 00:42:40;;;;;;;;;;;20.10;84.00;;;;;;5115688;28;19918;-58
2023/03/19 00:45:06;;;;;;;;;;;20.10;84.10;;;;;;5114683;28;20384;-58
2023/03/19 00:47:31;;;;;;;;;;;20.10;83.90;;;;;;5115767;28;19911;-58
2023/03/19 00:49:57;;;;;;;;;;;20.10;84.10;;;;;;5097558;28;19911;-58
2023/03/19 00:52:22;;;;;;;;;;;20.00;84.30;;;;;;5115806;28;19954;-58
2023/03/19 00:54:48;;;;;;;;;;;20.00;84.30;;;;;;5114684;28;20006;-55
2023/03/19 00:57:13;;;;;;;;;;;20.00;84.20;;;;;;5115762;28;19968;-58
2023/03/19 00:59:39;;;;;;;;;;;19.90;84.10;;;;;;5115295;28;19914;-58
2023/03/19 01:02:04;;;;;;;;;;;19.90;83.90;;;;;;5115526;28;19908;-58
2023/03/19 01:04:30;;;;;;;;;;;19.80;84.10;;;;;;5114523;28;20278;-58
2023/03/19 01:06:57;;;;;;;;;;;19.80;84.20;;;;;;5115182;28;19908;-58
2023/03/19 01:09:22;;;;;;;;;;;19.80;84.10;;;;;;5097030;28;19922;-57
2023/03/19 01:11:48;;;;;;;;;;;19.80;84.20;;;;;;5115475;28;19911;-58
2023/03/19 01:14:14;;;;;;;;;;;19.80;84.20;;;;;;5114994;28;19950;-58
2023/03/19 01:16:40;;;;;;;;;;;19.80;84.20;;;;;;5114013;28;20259;-57
2023/03/19 01:19:05;;;;;;;;;;;19.90;84.30;;;;;;5115155;28;20002;-57
2023/03/19 01:21:32;;;;;;;;;;;19.90;84.40;;;;;;5115133;28;19960;-57
2023/03/19 01:23:58;;;;;;;;;;;20.10;84.60;;;;;;5113657;28;19912;-57
2023/03/19 01:26:23;;;;;;;;;;;20.10;84.30;;;;;;5115204;28;19953;-58
2023/03/19 01:28:49;;;;;;;;;;;20.20;84.00;;;;;;5114962;28;19912;-57
2023/03/19 01:31:15;;;;;;;;;;;20.20;83.70;;;;;;5114768;28;19937;-58
2023/03/19 01:33:41;;;;;;;;;;;20.30;83.70;;;;;;5113785;28;19915;-58
2023/03/19 01:36:07;;;;;;;;;;;20.20;83.90;;;;;;5096707;28;19916;-57
2023/03/19 01:38:33;;;;;;;;;;;20.20;83.70;;;;;;5114873;28;19973;-58
2023/03/19 01:40:58;;;;;;;;;;;20.20;83.50;;;;;;5114917;28;19920;-57
2023/03/19 01:43:28;;;;;;;;;;;20.20;83.70;;;;;;5113435;28;19907;-58
2023/03/19 01:46:06;;;;;;;;;;;20.10;83.70;;;;;;5114504;28;19908;-57
2023/03/19 01:48:37;;;;;;;;;;;20.10;83.70;;;;;;5114732;28;19911;-57
2023/03/19 01:51:06;;;;;;;;;;;20.00;83.90;;;;;;5114791;28;19915;-57
2023/03/19 01:53:32;;;;;;;;;;;20.00;84.00;;;;;;5113301;28;20258;-57
2023/03/19 01:56:01;;;;;;;;;;;20.00;83.90;;;;;;5114613;28;20003;-58
2023/03/19 01:58:26;;;;;;;;;;;20.00;84.00;;;;;;5114417;28;19915;-57
2023/03/19 02:00:52;;;;;;;;;;;19.90;83.90;;;;;;5114422;28;20006;-57
2023/03/19 02:03:18;;;;;;;;;;;19.90;84.00;;;;;;5114194;28;19981;-57
2023/03/19 02:05:45;;;;;;;;;;;19.80;83.90;;;;;;5113720;28;19918;-57
2023/03/19 02:08:12;;;;;;;;;;;19.80;84.00;;;;;;5114172;28;20056;-57
2023/03/19 02:10:39;;;;;;;;;;;19.80;84.20;;;;;;5114229;28;19929;-57
2023/03/19 02:13:05;;;;;;;;;;;19.80;84.20;;;;;;5114244;28;20315;-57
2023/03/19 02:15:31;;;;;;;;;;;19.80;84.80;;;;;;5113624;28;19907;-57
2023/03/19 02:17:56;;;;;;;;;;;19.80;84.50;;;;;;5114206;28;19956;-55
2023/03/19 02:20:35;;;;;;;;;;;19.90;84.70;;;;;;5114159;28;20374;-57
2023/03/19 02:23:14;;;;;;;;;;;20.00;84.40;;;;;;5113403;28;19908;-58
2023/03/19 02:25:45;;;;;;;;;;;20.00;84.30;;;;;;5114282;28;19926;-56
2023/03/19 02:28:13;;;;;;;;;;;20.20;84.30;;;;;;5114215;28;20339;-56
2023/03/19 02:30:38;;;;;;;;;;;20.20;84.20;;;;;;5114066;28;20342;-57
2023/03/19 02:33:04;;;;;;;;;;;20.20;84.30;;;;;;5113364;28;19959;-57
2023/03/19 02:35:31;;;;;;;;;;;20.20;84.10;;;;;;5112485;28;19919;-58
2023/03/19 02:37:57;;;;;;;;;;;20.20;84.10;;;;;;5113945;28;19954;-58
2023/03/19 02:40:28;;;;;;;;;;;20.10;84.00;;;;;;5114175;28;19919;-57
2023/03/19 02:42:53;;;;;;;;;;;20.10;84.00;;;;;;5114037;28;19908;-57
2023/03/19 02:45:20;;;;;;;;;;;20.10;83.80;;;;;;5112909;28;19944;-59
2023/03/19 02:47:45;;;;;;;;;;;20.10;83.70;;;;;;5114046;28;19950;-58
2023/03/19 02:50:11;;;;;;;;;;;20.00;83.80;;;;;;5114087;28;19943;-56
2023/03/19 02:52:37;;;;;;;;;;;20.00;83.90;;;;;;5114057;28;19908;-58
2023/03/19 02:55:02;;;;;;;;;;;20.00;83.70;;;;;;5113165;28;20358;-56
2023/03/19 02:57:28;;;;;;;;;;;19.90;84.10;;;;;;5114038;28;20322;-56
2023/03/19 02:59:53;;;;;;;;;;;19.90;83.80;;;;;;5114020;28;19960;-57
2023/03/19 03:02:19;;;;;;;;;;;19.90;83.90;;;;;;5114115;28;20309;-58
2023/03/19 03:04:45;;;;;;;;;;;19.90;84.20;;;;;;5114469;28;20274;-57
2023/03/19 03:07:10;;;;;;;;;;;19.80;84.00;;;;;;5115494;28;19926;-59
2023/03/19 03:09:36;;;;;;;;;;;19.80;84.00;;;;;;5114500;28;20499;-59
2023/03/19 03:12:02;;;;;;;;;;;19.80;84.00;;;;;;5117804;28;19912;-59
2023/03/19 03:14:27;;;;;;;;;;;19.80;84.00;;;;;;5116659;28;20400;-58
2023/03/19 03:16:53;;;;;;;;;;;19.80;84.00;;;;;;5115559;28;19958;-58
2023/03/19 03:19:19;;;;;;;;;;;19.80;84.30;;;;;;5116779;28;19919;-59
2023/03/19 03:21:44;;;;;;;;;;;19.90;83.80;;;;;;5117598;28;20270;-58
2023/03/19 03:24:10;;;;;;;;;;;20.00;84.00;;;;;;5117314;28;19908;-59
2023/03/19 03:26:37;;;;;;;;;;;20.00;83.90;;;;;;5116618;28;19918;-57
2023/03/19 03:29:06;;;;;;;;;;;20.10;83.70;;;;;;5117293;28;19922;-59
2023/03/19 03:31:32;;;;;;;;;;;20.10;83.80;;;;;;5117136;28;19916;-59
2023/03/19 03:33:57;;;;;;;;;;;20.10;83.90;;;;;;5117421;28;19946;-58
2023/03/19 03:36:23;;;;;;;;;;;20.10;83.60;;;;;;5116033;28;19916;-58
2023/03/19 03:38:49;;;;;;;;;;;20.10;83.90;;;;;;5117332;28;19908;-56
2023/03/19 03:41:14;;;;;;;;;;;20.10;83.50;;;;;;5116995;28;19934;-56
2023/03/19 03:43:40;;;;;;;;;;;20.00;83.50;;;;;;5117125;28;19908;-57
2023/03/19 03:46:06;;;;;;;;;;;20.00;83.70;;;;;;5116318;28;19919;-57
2023/03/19 03:48:32;;;;;;;;;;;20.00;83.90;;;;;;5117001;28;20035;-57
2023/03/19 03:50:57;;;;;;;;;;;20.00;83.70;;;;;;5098723;28;20370;-56
2023/03/19 03:53:22;;;;;;;;;;;20.00;83.80;;;;;;5116711;28;19911;-57
2023/03/19 03:55:48;;;;;;;;;;;19.90;84.10;;;;;;5115869;28;19994;-57
2023/03/19 03:58:13;;;;;;;;;;;19.90;83.80;;;;;;5116886;28;19908;-55
2023/03/19 04:00:39;;;;;;;;;;;19.90;83.80;;;;;;5116835;28;19941;-57
2023/03/19 04:03:04;;;;;;;;;;;19.90;84.00;;;;;;5116763;28;19915;-57
2023/03/19 04:05:30;;;;;;;;;;;19.80;84.00;;;;;;5115915;28;19956;-57
2023/03/19 04:07:56;;;;;;;;;;;19.80;84.10;;;;;;5116370;28;19912;-57
2023/03/19 04:10:21;;;;;;;;;;;19.80;84.10;;;;;;5116685;28;19918;-57
2023/03/19 04:12:46;;;;;;;;;;;19.80;84.00;;;;;;5116627;28;20273;-57
2023/03/19 04:15:12;;;;;;;;;;;19.80;84.20;;;;;;5114581;28;20027;-57
2023/03/19 04:17:39;;;;;;;;;;;19.80;84.10;;;;;;5115935;28;19908;-57
2023/03/19 04:20:06;;;;;;;;;;;19.80;84.10;;;;;;5116468;28;20010;-58
2023/03/19 04:22:32;;;;;;;;;;;19.90;84.10;;;;;;5115077;28;19919;-57
2023/03/19 04:24:57;;;;;;;;;;;19.90;83.80;;;;;;5116317;28;19931;-57
2023/03/19 04:27:23;;;;;;;;;;;20.10;83.90;;;;;;5116356;28;19908;-57
2023/03/19 04:29:48;;;;;;;;;;;20.10;83.60;;;;;;5116212;28;19912;-57
2023/03/19 04:32:14;;;;;;;;;;;20.10;83.30;;;;;;5116166;28;19912;-57
2023/03/19 04:34:40;;;;;;;;;;;20.20;83.60;;;;;;5114765;28;20004;-57
2023/03/19 04:37:06;;;;;;;;;;;20.20;83.20;;;;;;5116169;28;19953;-57
2023/03/19 04:39:32;;;;;;;;;;;20.20;83.20;;;;;;5116000;28;19908;-57
2023/03/19 04:41:58;;;;;;;;;;;20.10;83.10;;;;;;5097936;28;19920;-57
2023/03/19 04:44:23;;;;;;;;;;;20.10;83.30;;;;;;5114920;28;19918;-57
2023/03/19 04:46:49;;;;;;;;;;;20.10;83.00;;;;;;5115984;28;19908;-56
2023/03/19 04:49:14;;;;;;;;;;;20.10;83.20;;;;;;5115823;28;19918;-57
2023/03/19 04:51:40;;;;;;;;;;;20.00;83.70;;;;;;5115814;28;20247;-56
2023/03/19 04:54:06;;;;;;;;;;;20.00;83.50;;;;;;5114944;28;19911;-57
2023/03/19 04:56:31;;;;;;;;;;;20.00;83.50;;;;;;5115493;28;19923;-57
2023/03/19 04:58:57;;;;;;;;;;;20.00;83.60;;;;;;5115449;28;20274;-57
2023/03/19 05:01:23;;;;;;;;;;;19.90;84.00;;;;;;5115627;28;19918;-57
2023/03/19 05:03:49;;;;;;;;;;;19.90;83.90;;;;;;5114507;28;19908;-57
2023/03/19 05:06:15;;;;;;;;;;;19.80;84.00;;;;;;5115417;28;19907;-57
2023/03/19 05:08:41;;;;;;;;;;;19.80;83.70;;;;;;5115646;28;19912;-57
2023/03/19 05:11:06;;;;;;;;;;;19.80;84.20;;;;;;5115130;28;19918;-57
2023/03/19 05:13:32;;;;;;;;;;;19.80;84.20;;;;;;5115143;28;20035;-57
2023/03/19 05:15:58;;;;;;;;;;;19.80;83.90;;;;;;5113207;28;20002;-57
2023/03/19 05:18:24;;;;;;;;;;;19.80;84.60;;;;;;5115224;28;19915;-57
2023/03/19 05:20:50;;;;;;;;;;;19.80;84.50;;;;;;5115352;28;19907;-57
2023/03/19 05:23:16;;;;;;;;;;;19.80;84.40;;;;;;5115267;28;19908;-57
2023/03/19 05:25:42;;;;;;;;;;;19.90;83.70;;;;;;5114266;28;19920;-58
2023/03/19 05:28:07;;;;;;;;;;;19.90;83.90;;;;;;5114558;28;19916;-58
2023/03/19 05:30:33;;;;;;;;;;;20.00;83.80;;;;;;5114911;28;20354;-57
2023/03/19 05:32:59;;;;;;;;;;;20.20;83.70;;;;;;5114611;28;20340;-57
2023/03/19 05:35:26;;;;;;;;;;;20.30;83.70;;;;;;5113800;28;19950;-58
2023/03/19 05:37:52;;;;;;;;;;;20.40;83.30;;;;;;5114808;28;20369;-57
2023/03/19 05:40:18;;;;;;;;;;;20.40;82.70;;;;;;5114833;28;19908;-58
2023/03/19 05:42:43;;;;;;;;;;;20.40;82.90;;;;;;5114710;28;19914;-57
2023/03/19 05:45:09;;;;;;;;;;;20.40;82.60;;;;;;5113817;28;19914;-57
2023/03/19 05:47:35;;;;;;;;;;;20.40;82.60;;;;;;5114854;28;19908;-57
2023/03/19 05:50:01;;;;;;;;;;;20.30;82.60;;;;;;5115143;28;20262;-58
2023/03/19 05:52:27;;;;;;;;;;;20.30;82.90;;;;;;5114845;28;19907;-56
2023/03/19 05:54:52;;;;;;;;;;;20.20;82.90;;;;;;5114757;28;19912;-58
2023/03/19 05:57:17;;;;;;;;;;;20.20;82.90;;;;;;5110637;28;19907;-58
2023/03/19 05:59:43;;;;;;;;;;;20.20;82.90;;;;;;5114657;28;20003;-57
2023/03/19 06:02:08;;;;;;;;;;;20.20;82.90;;;;;;5116716;28;19907;-57
2023/03/19 06:04:34;;;;;;;;;;;20.10;83.00;;;;;;5111809;27;19938;-57
2023/03/19 06:07:00;;;;;;;;;;;20.10;83.10;;;;;;5109516;28;19912;-58
2023/03/19 06:09:25;;;;;;;;;;;20.00;83.30;;;;;;5125000;27;19919;-57
2023/03/19 06:11:51;;;;;;;;;;;20.10;83.40;;;;;;5119501;28;20410;-56
2023/03/19 06:14:16;;;;;;;;;;;20.00;83.30;;;;;;5114391;28;19918;-58
2023/03/19 06:16:42;;;;;;;;;;;20.00;83.20;;;;;;5103435;28;19908;-57
2023/03/19 06:19:07;;;;;;;;;;;20.10;83.20;;;;;;5116426;28;19912;-57
2023/03/19 06:21:33;;;;;;;;;;;20.20;83.30;;;;;;5119501;28;19962;-57
2023/03/19 06:23:58;;;;;;;;;;;20.30;83.50;;;;;;5099649;28;19912;-57
2023/03/19 06:26:25;;;;;;;;;;;20.30;83.10;;;;;;5122993;28;19956;-57
2023/03/19 06:28:50;;;;;;;;;;;20.40;83.00;;;;;;5127114;28;19919;-55
2023/03/19 06:31:16;;;;;;;;;;;20.40;83.00;;;;;;5112463;28;20273;-57
2023/03/19 06:33:41;;;;;;;;;;;20.30;82.90;;;;;;5106850;28;19915;-57
2023/03/19 06:36:07;;;;;;;;;;;20.30;82.70;;;;;;5125779;28;19910;-57
2023/03/19 06:38:33;;;;;;;;;;;20.30;82.50;;;;;;5123314;28;19911;-59
2023/03/19 06:40:58;;;;;;;;;;;20.30;82.80;;;;;;5117905;28;19919;-55
2023/03/19 06:43:24;;;;;;;;;;;20.30;82.90;;;;;;5118178;28;20249;-57
2023/03/19 06:45:50;;;;;;;;;;;20.30;83.10;;;;;;5117073;28;19915;-57
2023/03/19 06:48:15;;;;;;;;;;;20.20;83.40;;;;;;5117839;28;19952;-57
2023/03/19 06:50:41;;;;;;;;;;;20.20;83.20;;;;;;5130474;27;19977;-56
2023/03/19 06:53:06;;;;;;;;;;;20.10;83.30;;;;;;5116904;28;19908;-58
2023/03/19 06:55:32;;;;;;;;;;;20.10;83.40;;;;;;5114838;28;20408;-57
2023/03/19 06:57:57;;;;;;;;;;;20.10;83.60;;;;;;5113659;28;19919;-56
2023/03/19 07:00:23;;;;;;;;;;;20.00;83.50;;;;;;5116159;28;19945;-58
2023/03/19 07:02:48;;;;;;;;;;;20.10;83.90;;;;;;5117994;28;20345;-58
2023/03/19 07:05:14;;;;;;;;;;;20.00;83.70;;;;;;5117721;28;19908;-57
2023/03/19 07:07:40;;;;;;;;;;;20.00;83.90;;;;;;5116242;27;19919;-56
2023/03/19 07:10:06;;;;;;;;;;;20.00;84.20;;;;;;5116322;27;19922;-57
2023/03/19 07:12:31;;;;;;;;;;;20.00;84.30;;;;;;5116421;28;19918;-58
2023/03/19 07:14:57;;;;;;;;;;;20.00;83.70;;;;;;5115213;28;19995;-58
2023/03/19 07:17:23;;;;;;;;;;;20.00;82.90;;;;;;5113494;28;19993;-58
2023/03/19 07:19:48;;;;;;;;;;;20.10;83.90;;;;;;5113816;28;20265;-58
2023/03/19 07:22:14;;;;;;;;;;;20.10;79.50;;;;;;5112547;28;19918;-58
2023/03/19 07:24:39;;;;;;;;;;;20.10;81.70;;;;;;5114657;28;20358;-58
2023/03/19 07:27:05;;;;;;;;;;;20.20;83.00;;;;;;5105295;28;19939;-58
2023/03/19 07:29:30;;;;;;;;;;;20.30;83.30;;;;;;5116707;28;20261;-57
2023/03/19 07:31:56;;;;;;;;;;;20.40;83.30;;;;;;5116103;28;19933;-58
2023/03/19 07:34:22;;;;;;;;;;;20.40;83.00;;;;;;5116699;28;20261;-57
2023/03/19 07:36:47;;;;;;;;;;;20.40;83.20;;;;;;5116562;28;19919;-58
2023/03/19 07:39:13;;;;;;;;;;;20.40;83.10;;;;;;5105642;28;19935;-56
2023/03/19 07:41:38;;;;;;;;;;;20.30;78.80;;;;;;5089338;28;19959;-58
2023/03/19 07:44:04;;;;;;;;;;;20.30;80.90;;;;;;5094370;28;19927;-58
2023/03/19 07:46:30;;;;;;;;;;;20.30;82.30;;;;;;5092589;28;19912;-58
2023/03/19 07:48:56;;;;;;;;;;;20.20;82.70;;;;;;5093862;28;19978;-58
2023/03/19 07:51:21;;;;;;;;;;;20.20;83.10;;;;;;5083785;28;19912;-58
2023/03/19 07:53:47;;;;;;;;;;;20.20;83.20;;;;;;5101027;28;19922;-58
2023/03/19 07:56:12;;;;;;;;;;;20.10;83.60;;;;;;5102645;28;19916;-58
2023/03/19 07:58:38;;;;;;;;;;;20.10;83.40;;;;;;5105437;28;19908;-58
2023/03/19 08:01:03;;;;;;;;;;;20.10;83.40;;;;;;5099686;28;19908;-58
2023/03/19 08:03:29;;;;;;;;;;;20.10;83.30;;;;;;5110462;28;20326;-58
2023/03/19 08:05:54;;;;;;;;;;;20.10;83.50;;;;;;5108270;28;19920;-58
2023/03/19 08:08:20;;;;;;;;;;;20.00;83.50;;;;;;5101060;28;20364;-58
2023/03/19 08:10:46;;;;;;;;;;;20.00;83.30;;;;;;5116389;28;20012;-58
2023/03/19 08:13:13;;;;;;;;;;;20.00;83.30;;;;;;5103806;28;20272;-58
2023/03/19 08:15:38;;;;;;;;;;;20.00;83.50;;;;;;5095964;28;20374;-58
2023/03/19 08:18:04;;;;;;;;;;;20.00;83.70;;;;;;5094827;28;19912;-59
2023/03/19 08:20:30;;;;;;;;;;;20.00;83.80;;;;;;5096246;28;20244;-58
2023/03/19 08:22:56;;;;;;;;;;;20.00;83.60;;;;;;5095631;28;19916;-58
2023/03/19 08:25:22;;;;;;;;;;;20.10;83.50;;;;;;5108376;28;19994;-58
2023/03/19 08:27:48;;;;;;;;;;;20.20;83.40;;;;;;5103061;28;20010;-58
2023/03/19 08:30:13;;;;;;;;;;;20.40;82.80;;;;;;5095519;28;20061;-58
2023/03/19 08:32:39;;;;;;;;;;;20.50;82.70;;;;;;5111925;28;19920;-58
2023/03/19 08:35:05;;;;;;;;;;;20.60;82.40;;;;;;5105635;28;19919;-58
2023/03/19 08:37:30;;;;;;;;;;;20.60;82.40;;;;;;5107756;28;20271;-58
2023/03/19 08:39:56;;;;;;;;;;;20.60;82.30;;;;;;5095628;28;19908;-57
2023/03/19 08:42:22;;;;;;;;;;;20.60;82.20;;;;;;5114595;28;19919;-58
2023/03/19 08:44:47;;;;;;;;;;;20.60;82.30;;;;;;5115890;28;19908;-58
2023/03/19 08:47:13;;;;;;;;;;;20.50;82.50;;;;;;5114958;27;19918;-58
2023/03/19 08:49:38;;;;;;;;;;;20.50;82.50;;;;;;5114164;28;19966;-58
2023/03/19 08:52:05;;;;;;;;;;;20.40;82.60;;;;;;5111768;28;19915;-59
2023/03/19 08:54:30;;;;;;;;;;;20.40;82.60;;;;;;5118519;27;19915;-58
2023/03/19 08:56:56;;;;;;;;;;;20.40;82.40;;;;;;5102597;28;19912;-58
2023/03/19 08:59:21;;;;;;;;;;;20.30;82.40;;;;;;5122271;27;19916;-58
2023/03/19 09:01:53;;;;;;;;;;;20.30;82.50;;;;;;5115224;28;19912;-59
2023/03/19 09:04:19;;;;;;;;;;;20.30;82.90;;;;;;5115599;28;20027;-58
2023/03/19 09:06:45;;;;;;;;;;;20.20;82.90;;;;;;5113203;28;19946;-58
2023/03/19 09:09:10;;;;;;;;;;;20.20;83.00;;;;;;5097983;28;19947;-58
2023/03/19 09:11:36;;;;;;;;;;;20.20;83.30;;;;;;5115359;28;19919;-58
2023/03/19 09:14:02;;;;;;;;;;;20.20;83.50;;;;;;5114217;28;19919;-59
2023/03/19 09:16:27;;;;;;;;;;;20.10;83.20;;;;;;5114991;28;19908;-58
2023/03/19 09:18:53;;;;;;;;;;;20.10;83.30;;;;;;5125865;27;19916;-59
2023/03/19 09:21:18;;;;;;;;;;;20.10;83.20;;;;;;5135691;27;19907;-59
2023/03/19 09:23:44;;;;;;;;;;;20.10;83.30;;;;;;5133535;27;19953;-58
2023/03/19 09:26:09;;;;;;;;;;;20.10;83.20;;;;;;5112017;27;20323;-57
2023/03/19 09:28:35;;;;;;;;;;;20.20;83.20;;;;;;5113718;28;19916;-58
2023/03/19 09:31:05;;;;;;;;;;;20.20;83.20;;;;;;5110978;28;19962;-58
2023/03/19 09:33:31;;;;;;;;;;;20.40;83.40;;;;;;5090542;28;19941;-58
2023/03/19 09:35:57;;;;;;;;;;;20.50;83.20;;;;;;5114106;27;19912;-58
2023/03/19 09:38:22;;;;;;;;;;;20.50;82.10;;;;;;5113156;27;20192;-58
2023/03/19 09:40:52;;;;;;;;;;;20.50;82.10;;;;;;5125807;27;19919;-58
2023/03/19 09:43:36;;;;;;;;;;;20.60;82.10;;;;;;5108032;27;19908;-58
2023/03/19 09:46:05;;;;;;;;;;;20.50;82.30;;;;;;5110247;28;19904;-57
2023/03/19 09:48:31;;;;;;;;;;;20.50;82.00;;;;;;5113817;28;20300;-58
2023/03/19 09:50:58;;;;;;;;;;;20.40;82.30;;;;;;5114739;28;19915;-58
2023/03/19 09:53:34;;;;;;;;;;;20.40;82.50;;;;;;5113554;28;19951;-58
2023/03/19 09:56:01;;;;;;;;;;;20.40;82.50;;;;;;5114853;28;19910;-57
2023/03/19 09:58:33;;;;;;;;;;;20.30;82.70;;;;;;5112541;28;19908;-58
2023/03/19 10:00:59;;;;;;;;;;;20.30;82.40;;;;;;5113805;28;19953;-57
2023/03/19 10:03:44;;;;;;;;;;;20.30;82.70;;;;;;5114796;28;19947;-58
2023/03/19 10:06:12;;;;;;;;;;;20.30;82.80;;;;;;5113595;28;19920;-58
2023/03/19 10:08:46;;;;;;;;;;;20.20;82.80;;;;;;5114380;28;20288;-58
2023/03/19 10:11:12;;;;;;;;;;;20.20;83.00;;;;;;5114589;28;19911;-57
2023/03/19 10:13:54;;;;;;;;;;;20.10;83.20;;;;;;5112925;28;19911;-57
2023/03/19 10:16:24;;;;;;;;;;;20.10;83.00;;;;;;5113450;28;19907;-57
2023/03/19 10:18:51;;;;;;;;;;;20.10;83.30;;;;;;5114255;28;19904;-57
2023/03/19 10:21:19;;;;;;;;;;;20.10;83.30;;;;;;5114377;28;19943;-57
2023/03/19 10:23:58;;;;;;;;;;;20.00;83.30;;;;;;5095087;28;19903;-57
2023/03/19 10:26:30;;;;;;;;;;;20.00;83.70;;;;;;5114323;28;20027;-57
2023/03/19 10:29:10;;;;;;;;;;;20.00;83.40;;;;;;5114227;28;19908;-57
2023/03/19 10:31:45;;;;;;;;;;;20.00;83.60;;;;;;5114274;28;19908;-57
2023/03/19 10:34:14;;;;;;;;;;;20.00;83.20;;;;;;5112985;28;20346;-58
2023/03/19 10:36:39;;;;;;;;;;;20.00;83.50;;;;;;5095615;28;20015;-58
2023/03/19 10:39:06;;;;;;;;;;;20.00;83.60;;;;;;5113916;28;19908;-58
2023/03/19 10:41:50;;;;;;;;;;;20.00;83.70;;;;;;5114010;28;20247;-57
2023/03/19 10:44:23;;;;;;;;;;;20.00;83.40;;;;;;5113227;28;19912;-58
2023/03/19 10:46:49;;;;;;;;;;;20.00;84.10;;;;;;5114477;28;19905;-58
2023/03/19 10:49:15;;;;;;;;;;;20.00;83.90;;;;;;5114064;28;19930;-58
2023/03/19 10:51:45;;;;;;;;;;;20.00;84.20;;;;;;5114094;28;19976;-58
2023/03/19 10:54:21;;;;;;;;;;;20.10;84.30;;;;;;5113143;28;19907;-58
2023/03/19 10:56:47;;;;;;;;;;;20.10;84.30;;;;;;5113917;28;19952;-58
2023/03/19 10:59:21;;;;;;;;;;;20.20;84.30;;;;;;5114077;28;19995;-58
2023/03/19 11:01:47;;;;;;;;;;;20.20;84.40;;;;;;5113771;28;19908;-58
2023/03/19 11:04:22;;;;;;;;;;;20.20;83.90;;;;;;5094777;28;19908;-58
2023/03/19 11:06:49;;;;;;;;;;;20.20;83.70;;;;;;5094978;28;19912;-58
2023/03/19 11:09:18;;;;;;;;;;;20.20;83.70;;;;;;5113799;28;19916;-57
2023/03/19 11:11:46;;;;;;;;;;;20.20;83.60;;;;;;5113358;28;20354;-58
2023/03/19 11:14:16;;;;;;;;;;;20.30;83.50;;;;;;5113172;28;19908;-58
2023/03/19 11:17:01;;;;;;;;;;;20.20;83.40;;;;;;5113843;28;20350;-58
2023/03/19 11:19:28;;;;;;;;;;;20.20;83.40;;;;;;5113586;28;19904;-58
2023/03/19 11:21:59;;;;;;;;;;;20.20;83.40;;;;;;5113896;28;19908;-58
2023/03/19 11:24:25;;;;;;;;;;;20.20;83.20;;;;;;5112783;28;19915;-57
2023/03/19 11:26:54;;;;;;;;;;;20.20;83.30;;;;;;5099046;28;19904;-58
2023/03/19 11:29:20;;;;;;;;;;;20.20;83.30;;;;;;5117266;28;19908;-58
2023/03/19 11:31:52;;;;;;;;;;;20.20;83.20;;;;;;5117306;28;19915;-58
2023/03/19 11:34:39;;;;;;;;;;;20.20;83.60;;;;;;5116317;28;19911;-58
2023/03/19 11:37:17;;;;;;;;;;;20.20;84.00;;;;;;5117233;28;19949;-58
2023/03/19 11:39:49;;;;;;;;;;;20.20;83.50;;;;;;5117432;28;19908;-58
2023/03/19 11:42:27;;;;;;;;;;;20.20;83.40;;;;;;5117202;28;19916;-58
2023/03/19 11:45:06;;;;;;;;;;;20.20;83.90;;;;;;5116573;28;20609;-58
2023/03/19 11:47:38;;;;;;;;;;;20.20;83.60;;;;;;5098970;27;20016;-58
2023/03/19 11:50:07;;;;;;;;;;;20.20;83.30;;;;;;5116489;28;19951;-58
2023/03/19 11:52:32;;;;;;;;;;;20.30;83.30;;;;;;5116347;28;20294;-58
2023/03/19 11:55:10;;;;;;;;;;;20.30;84.10;;;;;;5115936;28;19908;-58
2023/03/19 11:58:05;;;;;;;;;;;20.30;83.50;;;;;;5114502;28;19908;-58
2023/03/19 12:00:47;;;;;;;;;;;20.30;83.40;;;;;;5055177;28;19913;-58
2023/03/19 12:03:32;;;;;;;;;;;20.30;83.50;;;;;;5096082;28;19973;-57
2023/03/19 12:06:04;;;;;;;;;;;20.30;83.60;;;;;;5092492;28;20003;-58
2023/03/19 12:08:32;;;;;;;;;;;20.30;83.50;;;;;;5133907;27;19911;-57
2023/03/19 12:10:58;;;;;;;;;;;20.30;83.70;;;;;;5132475;27;19951;-58
2023/03/19 12:13:29;;;;;;;;;;;20.30;83.70;;;;;;5116417;28;19954;-58
2023/03/19 12:16:09;;;;;;;;;;;20.30;84.00;;;;;;5114739;28;19912;-57
2023/03/19 12:18:51;;;;;;;;;;;20.30;83.90;;;;;;5106605;27;19915;-58
2023/03/19 12:21:23;;;;;;;;;;;20.20;84.00;;;;;;5136799;27;19914;-57
2023/03/19 12:24:10;;;;;;;;;;;20.20;83.70;;;;;;5136902;27;20006;-58
2023/03/19 12:26:49;;;;;;;;;;;20.20;83.80;;;;;;5113045;28;19916;-58
2023/03/19 12:29:38;;;;;;;;;;;20.20;83.90;;;;;;5116276;28;19912;-58
2023/03/19 12:32:22;;;;;;;;;;;20.20;84.00;;;;;;5106084;27;20282;-57
2023/03/19 12:34:51;;;;;;;;;;;20.30;84.10;;;;;;5119049;27;19911;-58
2023/03/19 12:37:16;;;;;;;;;;;20.30;84.20;;;;;;5115427;28;20397;-58
2023/03/19 12:40:09;;;;;;;;;;;20.40;84.20;;;;;;5097490;28;19957;-58
2023/03/19 12:42:37;;;;;;;;;;;20.40;84.00;;;;;;5077037;28;19924;-58
2023/03/19 12:45:04;;;;;;;;;;;20.40;83.70;;;;;;5114416;28;20141;-59
2023/03/19 12:47:33;;;;;;;;;;;20.40;83.90;;;;;;5115771;28;20010;-58
2023/03/19 12:50:01;;;;;;;;;;;20.50;83.80;;;;;;5115301;28;19919;-58
2023/03/19 12:52:42;;;;;;;;;;;20.50;83.60;;;;;;5115005;27;20146;-58
2023/03/19 12:55:11;;;;;;;;;;;20.50;83.70;;;;;;5111926;28;19912;-58
2023/03/19 12:57:41;;;;;;;;;;;20.50;83.60;;;;;;5112559;28;19938;-58
2023/03/19 13:00:15;;;;;;;;;;;20.40;84.10;;;;;;5113731;28;20018;-57
2023/03/19 13:02:42;;;;;;;;;;;20.50;83.80;;;;;;5110952;28;19911;-57
2023/03/19 13:05:22;;;;;;;;;;;20.40;83.90;;;;;;5111396;28;20366;-58
2023/03/19 13:08:12;;;;;;;;;;;20.40;84.10;;;;;;5114077;28;19916;-58
2023/03/19 13:10:37;;;;;;;;;;;20.30;84.20;;;;;;5100115;28;20377;-59
2023/03/19 13:13:23;;;;;;;;;;;20.40;84.60;;;;;;5115179;28;19911;-59
2023/03/19 13:15:51;;;;;;;;;;;20.30;84.90;;;;;;5113632;28;20003;-58
2023/03/19 13:18:36;;;;;;;;;;;20.30;84.60;;;;;;5109175;28;20423;-58
2023/03/19 13:21:20;;;;;;;;;;;20.30;84.80;;;;;;5114707;28;19907;-58
2023/03/19 13:23:47;;;;;;;;;;;20.40;84.90;;;;;;5113810;28;20304;-59
2023/03/19 13:26:13;;;;;;;;;;;20.40;84.60;;;;;;5112989;28;20289;-59
2023/03/19 13:28:58;;;;;;;;;;;20.50;83.40;;;;;;5114175;28;19916;-58
2023/03/19 13:31:24;;;;;;;;;;;20.60;82.90;;;;;;5113737;28;19920;-58
2023/03/19 13:34:10;;;;;;;;;;;20.70;84.00;;;;;;5111558;28;19919;-58
2023/03/19 13:36:38;;;;;;;;;;;20.80;84.10;;;;;;5093149;28;19919;-58
2023/03/19 13:39:09;;;;;;;;;;;20.60;80.00;;;;;;5113985;28;19916;-59
2023/03/19 13:41:36;;;;;;;;;;;20.60;82.30;;;;;;5113932;28;20414;-58
2023/03/19 13:44:20;;;;;;;;;;;20.60;83.80;;;;;;5114747;28;20002;-59
2023/03/19 13:46:46;;;;;;;;;;;20.60;83.90;;;;;;5111590;28;19919;-58
2023/03/19 13:49:26;;;;;;;;;;;20.50;84.20;;;;;;5111601;28;19912;-58
2023/03/19 13:51:59;;;;;;;;;;;20.50;84.40;;;;;;5110073;28;19916;-58
2023/03/19 13:54:32;;;;;;;;;;;20.50;84.30;;;;;;5094865;28;19911;-58
2023/03/19 13:57:03;;;;;;;;;;;20.40;83.70;;;;;;5112862;28;19912;-58
2023/03/19 13:59:38;;;;;;;;;;;20.40;84.40;;;;;;5112943;28;19912;-57
2023/03/19 14:02:21;;;;;;;;;;;20.30;79.70;;;;;;5093925;28;19916;-58
2023/03/19 14:04:51;;;;;;;;;;;20.20;82.60;;;;;;5075630;28;19923;-58
2023/03/19 14:07:21;;;;;;;;;;;20.20;84.10;;;;;;5075751;28;19908;-58
2023/03/19 14:10:03;;;;;;;;;;;20.20;84.50;;;;;;5093936;28;20212;-58
2023/03/19 14:12:33;;;;;;;;;;;20.10;84.50;;;;;;5076236;28;19951;-58
2023/03/19 14:14:59;;;;;;;;;;;20.20;84.60;;;;;;5093805;28;19961;-56
2023/03/19 14:17:33;;;;;;;;;;;20.30;84.60;;;;;;5106442;28;19912;-58
2023/03/19 14:20:10;;;;;;;;;;;20.30;84.50;;;;;;5112244;28;19912;-58
2023/03/19 14:22:51;;;;;;;;;;;20.40;84.30;;;;;;5110361;28;19908;-55